createdAt,value
2018-02-07T00:01:46.933Z,71.80
2018-02-07T00:04:14.494Z,71.30
2018-02-07T00:06:40.569Z,71.20
2018-02-07T00:09:06.665Z,71.20
2018-02-07T00:11:33.469Z,72.50
2018-02-07T00:13:59.723Z,72.30
2018-02-07T00:16:26.534Z,74.20
2018-02-07T00:18:52.611Z,73.50
2018-02-07T00:21:18.702Z,73.70
2018-02-07T00:23:44.804Z,73.20
2018-02-07T00:26:11.297Z,72.90
2018-02-07T00:28:37.374Z,72.40
2018-02-07T00:31:03.461Z,72.90
2018-02-07T00:33:29.537Z,73.40
2018-02-07T00:35:55.605Z,74.30
2018-02-07T00:38:21.934Z,75.00
2018-02-07T00:40:47.997Z,75.00
2018-02-07T00:43:14.070Z,74.70
2018-02-07T00:45:40.166Z,74.60
2018-02-07T00:48:06.229Z,74.70
2018-02-07T00:50:32.301Z,74.90
2018-02-07T00:52:58.397Z,75.00
2018-02-07T00:55:24.465Z,74.70
2018-02-07T00:57:50.545Z,75.10
2018-02-07T01:00:17.145Z,75.20
2018-02-07T01:02:43.953Z,75.10
2018-02-07T01:05:10.021Z,75.00
2018-02-07T01:07:36.091Z,75.20
2018-02-07T01:10:02.198Z,75.30
2018-02-07T01:12:28.254Z,75.00
2018-02-07T01:14:54.484Z,75.20
2018-02-07T01:17:20.569Z,75.30
2018-02-07T01:19:46.637Z,75.00
2018-02-07T01:22:12.724Z,75.10
2018-02-07T01:24:38.802Z,75.80
2018-02-07T01:27:05.341Z,76.10
2018-02-07T01:29:32.108Z,76.30
2018-02-07T01:31:58.178Z,75.80
2018-02-07T01:34:24.249Z,76.10
2018-02-07T01:36:51.121Z,75.80
2018-02-07T01:39:17.189Z,75.60
2018-02-07T01:41:43.249Z,75.60
2018-02-07T01:44:09.312Z,75.30
2018-02-07T01:46:35.401Z,75.50
2018-02-07T01:49:01.462Z,75.10
2018-02-07T01:51:27.525Z,74.80
2018-02-07T01:53:53.593Z,75.20
2018-02-07T01:56:19.665Z,75.50
2018-02-07T01:58:45.762Z,75.30
2018-02-07T02:01:12.517Z,75.40
2018-02-07T02:03:38.600Z,75.00
2018-02-07T02:06:04.671Z,75.00
2018-02-07T02:08:30.749Z,75.20
2018-02-07T02:10:56.817Z,76.00
2018-02-07T02:13:22.881Z,76.50
2018-02-07T02:15:48.977Z,76.30
2018-02-07T02:18:16.030Z,76.30
2018-02-07T02:20:42.122Z,76.40
2018-02-07T02:23:08.185Z,76.00
2018-02-07T02:25:34.253Z,76.30
2018-02-07T02:28:00.355Z,76.30
2018-02-07T02:30:26.427Z,76.70
2018-02-07T02:32:52.496Z,77.20
2018-02-07T02:35:18.569Z,77.00
2018-02-07T02:37:44.638Z,76.70
2018-02-07T02:40:10.722Z,75.70
2018-02-07T02:42:36.790Z,75.80
2018-02-07T02:45:02.869Z,75.70
2018-02-07T02:47:28.963Z,76.30
2018-02-07T02:49:55.030Z,76.60
2018-02-07T02:52:21.501Z,77.10
2018-02-07T02:54:48.329Z,77.20
2018-02-07T02:57:14.401Z,77.10
2018-02-07T02:59:40.501Z,76.90
2018-02-07T03:02:06.570Z,77.20
2018-02-07T03:04:32.633Z,77.30
2018-02-07T03:06:58.721Z,77.60
2018-02-07T03:09:24.802Z,77.90
2018-02-07T03:11:50.865Z,77.80
2018-02-07T03:14:16.961Z,77.60
2018-02-07T03:16:43.048Z,77.80
2018-02-07T03:19:09.121Z,77.50
2018-02-07T03:21:35.213Z,78.00
2018-02-07T03:24:01.289Z,78.70
2018-02-07T03:26:27.353Z,79.30
2018-02-07T03:28:53.443Z,78.90
2018-02-07T03:31:19.513Z,78.80
2018-02-07T03:33:45.645Z,78.80
2018-02-07T03:36:12.469Z,77.90
2018-02-07T03:38:38.529Z,77.80
2018-02-07T03:41:04.597Z,78.40
2018-02-07T03:43:30.675Z,78.80
2018-02-07T03:45:56.749Z,78.70
2018-02-07T03:48:22.809Z,78.60
2018-02-07T03:50:49.633Z,78.70
2018-02-07T03:53:15.688Z,78.70
2018-02-07T03:55:42.514Z,78.20
2018-02-07T03:58:08.570Z,78.10
2018-02-07T04:00:34.633Z,78.20
2018-02-07T04:03:00.723Z,78.00
2018-02-07T04:05:26.793Z,78.80
2018-02-07T04:07:52.862Z,78.60
2018-02-07T04:10:18.946Z,79.10
2018-02-07T04:12:45.024Z,79.60
2018-02-07T04:15:11.090Z,78.80
2018-02-07T04:17:37.182Z,77.80
2018-02-07T04:20:03.256Z,77.90
2018-02-07T04:22:29.319Z,78.30
2018-02-07T04:24:55.406Z,78.70
2018-02-07T04:27:21.737Z,78.90
2018-02-07T04:29:47.809Z,79.00
2018-02-07T04:32:13.885Z,78.90
2018-02-07T04:34:39.959Z,79.30
2018-02-07T04:37:06.054Z,79.50
2018-02-07T04:39:32.130Z,79.40
2018-02-07T04:41:58.885Z,79.60
2018-02-07T04:44:24.963Z,79.70
2018-02-07T04:46:51.032Z,79.40
2018-02-07T04:49:17.105Z,79.20
2018-02-07T04:51:43.928Z,80.10
2018-02-07T04:54:10.781Z,80.20
2018-02-07T04:56:37.602Z,80.30
2018-02-07T04:59:03.670Z,80.20
2018-02-07T05:01:29.728Z,80.20
2018-02-07T05:03:55.803Z,79.90
2018-02-07T05:06:22.621Z,78.90
2018-02-07T05:08:48.690Z,78.80
2018-02-07T05:11:14.765Z,79.00
2018-02-07T05:13:40.850Z,79.30
2018-02-07T05:16:06.921Z,79.20
2018-02-07T05:18:33.000Z,79.60
2018-02-07T05:20:59.117Z,79.60
2018-02-07T05:23:25.183Z,79.40
2018-02-07T05:25:51.257Z,79.50
2018-02-07T05:28:17.337Z,79.30
2018-02-07T05:30:43.402Z,79.50
2018-02-07T05:33:09.912Z,79.40
2018-02-07T05:35:35.977Z,78.80
2018-02-07T05:38:02.037Z,78.40
2018-02-07T05:40:28.126Z,78.70
2018-02-07T05:42:54.791Z,79.10
2018-02-07T05:45:20.857Z,79.50
2018-02-07T05:47:47.681Z,80.00
2018-02-07T05:50:13.825Z,80.00
2018-02-07T05:52:39.898Z,81.40
2018-02-07T05:55:05.961Z,81.80
2018-02-07T05:57:32.313Z,81.80
2018-02-07T05:59:59.109Z,82.40
2018-02-07T06:02:25.182Z,82.40
2018-02-07T06:04:51.254Z,81.80
2018-02-07T06:07:17.326Z,80.90
2018-02-07T06:09:43.401Z,81.00
2018-02-07T06:12:09.465Z,81.30
2018-02-07T06:14:35.555Z,81.20
2018-02-07T06:17:01.629Z,81.10
2018-02-07T06:19:28.522Z,81.60
2018-02-07T06:21:54.688Z,81.60
2018-02-07T06:24:20.753Z,82.00
2018-02-07T06:26:46.842Z,87.20
2018-02-07T06:29:12.910Z,89.50
2018-02-07T06:31:38.974Z,89.10
2018-02-07T06:34:11.978Z,88.00
2018-02-07T06:36:38.836Z,87.00
2018-02-07T06:39:04.914Z,86.90
2018-02-07T06:41:30.991Z,91.00
2018-02-07T06:43:57.078Z,90.60
2018-02-07T06:46:23.157Z,88.70
2018-02-07T06:48:49.225Z,86.60
2018-02-07T06:51:15.557Z,84.60
2018-02-07T06:53:41.637Z,83.70
2018-02-07T06:56:08.545Z,83.60
2018-02-07T06:58:34.670Z,83.80
2018-02-07T07:01:00.874Z,83.40
2018-02-07T07:03:26.965Z,83.80
2018-02-07T07:05:53.030Z,84.40
2018-02-07T07:08:19.105Z,84.50
2018-02-07T07:10:45.193Z,83.80
2018-02-07T07:13:11.254Z,83.30
2018-02-07T07:15:37.325Z,82.80
2018-02-07T07:18:03.418Z,82.50
2018-02-07T07:20:29.486Z,82.60
2018-02-07T07:22:55.550Z,83.10
2018-02-07T07:25:21.721Z,83.40
2018-02-07T07:27:47.789Z,83.90
2018-02-07T07:30:14.098Z,83.70
2018-02-07T07:32:40.181Z,83.90
2018-02-07T07:35:06.237Z,83.50
2018-02-07T07:37:32.325Z,83.30
2018-02-07T07:39:58.400Z,83.30
2018-02-07T07:42:25.218Z,82.80
2018-02-07T07:44:51.285Z,82.60
2018-02-07T07:47:17.359Z,82.60
2018-02-07T07:49:43.445Z,82.30
2018-02-07T07:52:09.517Z,82.30
2018-02-07T07:54:35.605Z,82.00
2018-02-07T07:57:01.773Z,81.60
2018-02-07T07:59:27.849Z,81.40
2018-02-07T08:01:53.921Z,81.30
2018-02-07T08:04:20.056Z,81.10
2018-02-07T08:06:46.158Z,80.60
2018-02-07T08:09:12.234Z,80.50
2018-02-07T08:11:38.318Z,79.90
2018-02-07T08:14:04.382Z,79.60
2018-02-07T08:16:31.212Z,79.30
2018-02-07T08:18:57.315Z,80.00
2018-02-07T08:21:23.386Z,79.20
2018-02-07T08:23:49.477Z,78.70
2018-02-07T08:26:15.545Z,77.90
2018-02-07T08:28:41.633Z,77.60
2018-02-07T08:31:07.725Z,77.50
2018-02-07T08:33:33.802Z,78.10
2018-02-07T08:36:00.613Z,77.60
2018-02-07T08:38:26.945Z,77.50
2018-02-07T08:40:53.027Z,77.70
2018-02-07T08:43:19.093Z,76.80
2018-02-07T08:45:45.176Z,76.10
2018-02-07T08:48:11.264Z,74.90
2018-02-07T08:50:37.325Z,74.20
2018-02-07T08:53:03.393Z,73.10
2018-02-07T08:55:29.512Z,72.60
2018-02-07T08:57:55.549Z,72.50
2018-02-07T09:00:21.629Z,72.20
2018-02-07T09:02:47.915Z,71.50
2018-02-07T09:05:13.986Z,71.00
2018-02-07T09:07:40.092Z,69.30
2018-02-07T09:10:06.226Z,68.90
2018-02-07T09:12:32.489Z,68.80
2018-02-07T09:14:58.584Z,68.50
2018-02-07T09:17:24.645Z,68.20
2018-02-07T09:19:50.730Z,67.20
2018-02-07T09:22:16.857Z,65.30
2018-02-07T09:24:42.930Z,65.20
2018-02-07T09:27:09.003Z,65.60
2018-02-07T09:29:35.135Z,64.90
2018-02-07T09:32:01.425Z,64.80
2018-02-07T09:34:27.493Z,64.40
2018-02-07T09:36:53.552Z,64.40
2018-02-07T09:39:19.628Z,63.70
2018-02-07T09:41:45.709Z,63.60
2018-02-07T09:44:11.801Z,62.00
2018-02-07T09:46:37.881Z,61.80
2018-02-07T09:49:04.054Z,62.70
2018-02-07T09:51:30.128Z,62.50
2018-02-07T09:53:56.954Z,60.30
2018-02-07T09:56:23.301Z,60.10
2018-02-07T09:58:49.400Z,60.10
2018-02-07T10:01:15.521Z,59.80
2018-02-07T10:03:41.594Z,59.40
2018-02-07T10:06:08.414Z,57.20
2018-02-07T10:08:34.477Z,57.20
2018-02-07T10:11:00.540Z,57.40
2018-02-07T10:13:26.626Z,56.60
2018-02-07T10:15:52.702Z,57.30
2018-02-07T10:18:18.777Z,57.10
2018-02-07T10:20:44.869Z,55.50
2018-02-07T10:23:10.940Z,55.40
2018-02-07T10:25:37.028Z,55.20
2018-02-07T10:28:03.114Z,54.10
2018-02-07T10:30:29.185Z,54.00
2018-02-07T10:32:55.301Z,53.90
2018-02-07T10:35:22.153Z,52.90
2018-02-07T10:37:48.344Z,52.80
2018-02-07T10:40:14.438Z,52.90
2018-02-07T10:42:40.509Z,52.10
2018-02-07T10:45:06.569Z,51.60
2018-02-07T10:47:32.666Z,52.20
2018-02-07T10:49:58.809Z,52.60
2018-02-07T10:52:25.035Z,52.20
2018-02-07T10:54:51.133Z,51.70
2018-02-07T10:57:18.874Z,52.00
2018-02-07T10:59:45.438Z,51.90
2018-02-07T11:02:11.517Z,51.60
2018-02-07T11:04:37.916Z,51.40
2018-02-07T11:07:04.012Z,49.70
2018-02-07T11:09:30.172Z,49.70
2018-02-07T11:11:56.281Z,49.90
2018-02-07T11:14:22.346Z,49.80
2018-02-07T11:16:48.416Z,48.60
2018-02-07T11:19:14.517Z,48.10
2018-02-07T11:21:40.585Z,48.40
2018-02-07T11:24:07.394Z,47.40
2018-02-07T11:26:33.503Z,47.40
2018-02-07T11:28:59.556Z,46.60
2018-02-07T11:31:25.637Z,46.50
2018-02-07T11:33:51.726Z,46.10
2018-02-07T11:36:18.533Z,46.00
2018-02-07T11:38:44.601Z,45.90
2018-02-07T11:41:10.669Z,45.90
2018-02-07T11:43:36.751Z,45.10
2018-02-07T11:46:03.572Z,43.40
2018-02-07T11:48:29.642Z,43.30
2018-02-07T11:50:55.769Z,43.10
2018-02-07T11:53:21.853Z,43.20
2018-02-07T11:55:47.927Z,42.90
2018-02-07T11:58:14.005Z,41.40
2018-02-07T12:00:40.853Z,42.90
2018-02-07T12:03:07.677Z,41.00
2018-02-07T12:05:33.745Z,40.90
2018-02-07T12:07:59.815Z,40.20
2018-02-07T12:10:25.883Z,40.60
2018-02-07T12:12:51.977Z,41.90
2018-02-07T12:15:18.058Z,42.70
2018-02-07T12:17:44.914Z,42.70
2018-02-07T12:20:11.010Z,42.60
2018-02-07T12:22:37.095Z,43.60
2018-02-07T12:25:03.170Z,42.70
2018-02-07T12:27:29.261Z,41.90
2018-02-07T12:30:02.326Z,41.80
2018-02-07T12:32:28.911Z,41.90
2018-02-07T12:34:54.992Z,41.70
2018-02-07T12:37:21.062Z,41.70
2018-02-07T12:39:47.143Z,41.10
2018-02-07T12:42:13.226Z,40.80
2018-02-07T12:44:39.306Z,41.30
2018-02-07T12:47:05.398Z,41.70
2018-02-07T12:49:31.478Z,41.60
2018-02-07T12:51:57.553Z,41.60
2018-02-07T12:54:24.037Z,41.30
2018-02-07T12:56:50.097Z,40.10
2018-02-07T12:59:16.165Z,40.00
2018-02-07T13:01:42.257Z,39.50
2018-02-07T13:04:08.342Z,40.00
2018-02-07T13:06:34.431Z,39.60
2018-02-07T13:09:00.533Z,39.70
2018-02-07T13:11:26.597Z,39.50
2018-02-07T13:13:52.801Z,39.30
2018-02-07T13:16:18.875Z,38.90
2018-02-07T13:18:44.971Z,38.90
2018-02-07T13:21:11.781Z,39.30
2018-02-07T13:23:37.923Z,39.30
2018-02-07T13:26:04.258Z,39.40
2018-02-07T13:28:30.346Z,39.10
2018-02-07T13:30:56.430Z,39.20
2018-02-07T13:33:22.501Z,39.20
2018-02-07T13:35:49.052Z,38.90
2018-02-07T13:38:15.139Z,38.90
2018-02-07T13:40:41.248Z,38.90
2018-02-07T13:43:07.391Z,38.60
2018-02-07T13:45:33.486Z,38.40
2018-02-07T13:47:59.594Z,38.40
2018-02-07T13:50:25.681Z,38.90
2018-02-07T13:52:51.749Z,39.20
2018-02-07T13:55:17.858Z,39.60
2018-02-07T13:57:43.935Z,39.60
2018-02-07T14:00:10.018Z,38.70
2018-02-07T14:02:36.114Z,38.30
2018-02-07T14:05:02.224Z,38.40
2018-02-07T14:07:28.300Z,38.80
2018-02-07T14:09:55.961Z,39.20
2018-02-07T14:12:22.035Z,39.20
2018-02-07T14:14:48.113Z,38.90
2018-02-07T14:17:14.219Z,38.70
2018-02-07T14:19:40.302Z,39.10
2018-02-07T14:22:06.473Z,39.50
2018-02-07T14:24:32.823Z,39.10
2018-02-07T14:26:58.895Z,39.00
2018-02-07T14:29:24.992Z,39.50
2018-02-07T14:31:51.863Z,39.40
2018-02-07T14:34:17.966Z,39.30
2018-02-07T14:36:44.047Z,39.20
2018-02-07T14:39:10.118Z,39.30
2018-02-07T14:41:36.198Z,38.90
2018-02-07T14:44:02.269Z,38.60
2018-02-07T14:46:28.352Z,38.80
2018-02-07T14:48:54.432Z,38.60
2018-02-07T14:51:20.930Z,39.00
2018-02-07T14:53:47.785Z,40.50
2018-02-07T14:56:13.859Z,39.70
2018-02-07T14:58:39.933Z,40.20
2018-02-07T15:01:06.012Z,40.70
2018-02-07T15:03:32.098Z,41.00
2018-02-07T15:05:58.177Z,40.60
2018-02-07T15:08:24.251Z,40.00
2018-02-07T15:10:50.337Z,40.00
2018-02-07T15:13:16.409Z,40.10
2018-02-07T15:15:42.493Z,39.60
2018-02-07T15:18:08.561Z,39.50
2018-02-07T15:20:34.637Z,39.50
2018-02-07T15:23:00.730Z,39.70
2018-02-07T15:25:26.789Z,40.10
2018-02-07T15:27:52.859Z,40.20
2018-02-07T15:30:18.960Z,40.00
2018-02-07T15:32:45.026Z,40.30
2018-02-07T15:35:11.106Z,40.40
2018-02-07T15:37:37.230Z,40.70
2018-02-07T15:40:03.320Z,40.90
2018-02-07T15:42:29.398Z,40.70
2018-02-07T15:44:55.489Z,40.90
2018-02-07T15:47:21.574Z,41.10
2018-02-07T15:49:47.640Z,41.40
2018-02-07T15:52:13.777Z,41.60
2018-02-07T15:54:39.849Z,41.70
2018-02-07T15:57:05.926Z,41.90
2018-02-07T15:59:32.761Z,42.60
2018-02-07T16:01:58.841Z,42.50
2018-02-07T16:04:24.920Z,42.90
2018-02-07T16:06:51.005Z,43.40
2018-02-07T16:09:17.087Z,43.50
2018-02-07T16:11:43.900Z,43.40
2018-02-07T16:14:10.002Z,43.20
2018-02-07T16:16:36.093Z,43.70
2018-02-07T16:19:02.220Z,44.20
2018-02-07T16:21:28.309Z,45.30
2018-02-07T16:23:54.381Z,45.90
2018-02-07T16:26:20.482Z,46.40
2018-02-07T16:28:46.550Z,47.00
2018-02-07T16:31:12.624Z,47.80
2018-02-07T16:33:38.714Z,48.30
2018-02-07T16:36:04.789Z,48.40
2018-02-07T16:38:30.867Z,48.50
2018-02-07T16:40:56.943Z,48.50
2018-02-07T16:43:23.016Z,48.40
2018-02-07T16:45:49.101Z,48.70
2018-02-07T16:48:15.169Z,48.90
2018-02-07T16:50:41.245Z,48.60
2018-02-07T16:53:07.349Z,48.50
2018-02-07T16:55:33.401Z,48.50
2018-02-07T16:57:59.580Z,48.80
2018-02-07T17:00:25.668Z,49.30
2018-02-07T17:02:51.750Z,49.40
2018-02-07T17:05:18.572Z,49.50
2018-02-07T17:07:44.646Z,49.50
2018-02-07T17:10:10.726Z,49.60
2018-02-07T17:12:36.816Z,49.50
2018-02-07T17:15:02.917Z,49.50
2018-02-07T17:17:29.221Z,49.80
2018-02-07T17:19:55.325Z,49.70
2018-02-07T17:22:21.404Z,50.00
2018-02-07T17:24:47.473Z,50.30
2018-02-07T17:27:13.538Z,50.40
2018-02-07T17:29:39.605Z,50.70
2018-02-07T17:32:05.696Z,50.80
2018-02-07T17:34:31.769Z,51.10
2018-02-07T17:36:57.834Z,51.20
2018-02-07T17:39:23.913Z,51.20
2018-02-07T17:41:50.008Z,51.00
2018-02-07T17:44:16.088Z,51.20
2018-02-07T17:46:42.184Z,51.30
2018-02-07T17:49:08.247Z,51.40
2018-02-07T17:51:34.335Z,51.30
2018-02-07T17:54:00.421Z,51.30
2018-02-07T17:56:26.489Z,51.40
2018-02-07T17:58:52.557Z,51.60
2018-02-07T18:01:18.630Z,51.70
2018-02-07T18:03:44.694Z,51.60
2018-02-07T18:06:10.784Z,51.70
2018-02-07T18:08:36.854Z,51.90
2018-02-07T18:11:02.926Z,52.20
2018-02-07T18:13:29.015Z,52.30
2018-02-07T18:15:55.072Z,52.50
2018-02-07T18:18:21.537Z,52.70
2018-02-07T18:20:47.641Z,52.70
2018-02-07T18:23:13.713Z,52.80
2018-02-07T18:25:39.866Z,52.90
2018-02-07T18:28:05.967Z,53.00
2018-02-07T18:30:32.047Z,53.00
2018-02-07T18:32:58.117Z,53.20
2018-02-07T18:35:24.197Z,52.90
2018-02-07T18:37:50.257Z,53.10
2018-02-07T18:40:17.069Z,53.80
2018-02-07T18:42:43.134Z,53.80
2018-02-07T18:45:09.218Z,53.60
2018-02-07T18:47:35.314Z,53.40
2018-02-07T18:50:01.386Z,53.40
2018-02-07T18:52:27.455Z,53.80
2018-02-07T18:54:54.482Z,53.70
2018-02-07T18:57:20.577Z,53.70
2018-02-07T18:59:46.670Z,54.00
2018-02-07T19:02:12.772Z,54.30
2018-02-07T19:04:38.857Z,54.60
2018-02-07T19:07:04.925Z,54.80
2018-02-07T19:09:31.001Z,55.20
2018-02-07T19:11:57.090Z,55.30
2018-02-07T19:14:23.173Z,55.40
2018-02-07T19:16:49.253Z,55.90
2018-02-07T19:19:15.338Z,56.00
2018-02-07T19:21:41.409Z,56.20
2018-02-07T19:24:07.506Z,55.90
2018-02-07T19:26:34.018Z,55.80
2018-02-07T19:29:07.045Z,55.80
2018-02-07T19:31:33.125Z,56.00
2018-02-07T19:33:59.938Z,56.00
2018-02-07T19:36:26.011Z,55.90
2018-02-07T19:38:52.098Z,56.10
2018-02-07T19:41:18.179Z,56.50
2018-02-07T19:43:44.263Z,56.90
2018-02-07T19:46:11.085Z,57.60
2018-02-07T19:48:37.158Z,57.50
2018-02-07T19:51:03.238Z,57.70
2018-02-07T19:53:29.355Z,57.80
2018-02-07T19:55:55.442Z,57.90
2018-02-07T19:58:21.534Z,57.90
2018-02-07T20:00:48.874Z,58.00
2018-02-07T20:03:14.966Z,57.90
2018-02-07T20:05:41.085Z,58.00
2018-02-07T20:08:07.158Z,58.20
2018-02-07T20:10:33.994Z,58.30
2018-02-07T20:13:00.118Z,58.20
2018-02-07T20:15:26.931Z,58.70
2018-02-07T20:17:53.007Z,58.70
2018-02-07T20:20:19.410Z,58.60
2018-02-07T20:22:45.505Z,58.60
2018-02-07T20:25:11.585Z,58.80
2018-02-07T20:27:37.658Z,58.90
2018-02-07T20:30:03.761Z,58.70
2018-02-07T20:32:29.850Z,58.70
2018-02-07T20:34:56.674Z,59.30
2018-02-07T20:37:22.746Z,59.30
2018-02-07T20:39:48.825Z,59.40
2018-02-07T20:42:14.929Z,59.90
2018-02-07T20:44:41.002Z,59.70
2018-02-07T20:47:07.814Z,60.40
2018-02-07T20:49:33.885Z,60.40
2018-02-07T20:51:59.957Z,60.50
2018-02-07T20:54:26.041Z,60.80
2018-02-07T20:56:52.166Z,60.80
2018-02-07T20:59:18.941Z,60.90
2018-02-07T21:01:45.027Z,61.60
2018-02-07T21:04:11.118Z,60.90
2018-02-07T21:06:37.968Z,61.10
2018-02-07T21:09:04.525Z,61.10
2018-02-07T21:11:30.593Z,61.20
2018-02-07T21:13:56.678Z,61.20
2018-02-07T21:16:22.749Z,61.60
2018-02-07T21:18:48.834Z,61.90
2018-02-07T21:21:14.914Z,61.90
2018-02-07T21:23:41.001Z,62.00
2018-02-07T21:26:07.157Z,62.30
2018-02-07T21:28:33.238Z,62.30
2018-02-07T21:30:59.328Z,62.70
2018-02-07T21:33:25.434Z,63.00
2018-02-07T21:35:51.524Z,63.20
2018-02-07T21:38:17.613Z,63.10
2018-02-07T21:40:43.689Z,63.50
2018-02-07T21:43:09.775Z,63.80
2018-02-07T21:45:35.862Z,63.70
2018-02-07T21:48:01.963Z,63.70
2018-02-07T21:50:28.226Z,63.70
2018-02-07T21:52:54.306Z,63.60
2018-02-07T21:55:20.421Z,63.70
2018-02-07T21:57:46.485Z,63.80
2018-02-07T22:00:12.570Z,63.80
2018-02-07T22:02:38.648Z,64.80
2018-02-07T22:05:06.203Z,65.20
2018-02-07T22:07:32.270Z,65.20
2018-02-07T22:09:58.365Z,65.30
2018-02-07T22:12:24.437Z,65.60
2018-02-07T22:14:50.522Z,65.60
2018-02-07T22:17:17.344Z,65.70
2018-02-07T22:19:43.418Z,65.60
2018-02-07T22:22:09.854Z,65.60
2018-02-07T22:24:35.933Z,65.70
2018-02-07T22:27:02.010Z,65.80
2018-02-07T22:29:28.110Z,66.20
2018-02-07T22:31:54.933Z,65.70
2018-02-07T22:34:21.022Z,65.70
2018-02-07T22:36:47.095Z,66.30
2018-02-07T22:39:13.925Z,66.20
2018-02-07T22:41:39.997Z,66.20
2018-02-07T22:44:06.070Z,65.20
2018-02-07T22:46:32.153Z,65.30
2018-02-07T22:48:58.221Z,65.60
2018-02-07T22:51:24.297Z,65.40
2018-02-07T22:53:50.477Z,66.10
2018-02-07T22:56:17.297Z,66.70
2018-02-07T22:58:43.379Z,66.60
2018-02-07T23:01:09.485Z,66.50
2018-02-07T23:03:35.577Z,66.70
2018-02-07T23:06:01.680Z,66.90
2018-02-07T23:08:27.761Z,66.70
2018-02-07T23:10:53.840Z,67.10
2018-02-07T23:13:19.924Z,67.40
2018-02-07T23:15:46.037Z,67.50
2018-02-07T23:18:12.881Z,67.70
2018-02-07T23:20:39.696Z,67.70
2018-02-07T23:23:05.766Z,67.60
2018-02-07T23:25:31.903Z,67.70
2018-02-07T23:27:57.976Z,67.70
2018-02-07T23:30:24.072Z,67.80
2018-02-07T23:32:50.143Z,67.60
2018-02-07T23:35:16.225Z,67.60
2018-02-07T23:37:42.314Z,67.70
2018-02-07T23:40:08.414Z,67.80
2018-02-07T23:42:34.477Z,68.00
2018-02-07T23:45:00.553Z,67.80
2018-02-07T23:47:26.623Z,67.80
2018-02-07T23:49:52.705Z,67.30
2018-02-07T23:52:18.803Z,67.60
2018-02-07T23:54:44.897Z,67.90
2018-02-07T23:57:10.986Z,68.20
2018-02-07T23:59:37.861Z,69.70
